sensor_id;sensor_type;location;lat;lon;timestamp;noise_LAeq;noise_LA_min;noise_LA_max;noise_LA01;noise_LA95
40465;Laerm;30489;48.982;8.394;2022-08-25T00:00:25;42.04;40.89;43.04;;
40465;Laerm;30489;48.982;8.394;2022-08-25T00:02:35;42.03;40.71;43.09;;
40465;Laerm;30489;48.982;8.394;2022-08-25T00:04:46;42.02;40.62;43.14;;
40465;Laerm;30489;48.982;8.394;2022-08-25T00:06:56;42.02;40.80;43.09;;
40465;Laerm;30489;48.982;8.394;2022-08-25T00:09:07;42.00;40.79;43.14;;
40465;Laerm;30489;48.982;8.394;2022-08-25T00:11:19;42.00;40.89;43.14;;
40465;Laerm;30489;48.982;8.394;2022-08-25T00:13:30;41.99;40.53;43.49;;
40465;Laerm;30489;48.982;8.394;2022-08-25T00:15:41;41.99;40.33;43.04;;
40465;Laerm;30489;48.982;8.394;2022-08-25T00:17:51;41.98;40.71;43.19;;
40465;Laerm;30489;48.982;8.394;2022-08-25T00:20:02;41.97;40.62;43.04;;
40465;Laerm;30489;48.982;8.394;2022-08-25T00:22:13;41.96;40.71;43.19;;
40465;Laerm;30489;48.982;8.394;2022-08-25T00:24:23;41.95;40.53;43.09;;
40465;Laerm;30489;48.982;8.394;2022-08-25T00:26:34;41.93;40.62;43.14;;
40465;Laerm;30489;48.982;8.394;2022-08-25T00:28:47;41.93;40.62;42.98;;
40465;Laerm;30489;48.982;8.394;2022-08-25T00:30:57;41.91;40.80;43.04;;
40465;Laerm;30489;48.982;8.394;2022-08-25T00:33:07;41.92;40.43;43.77;;
40465;Laerm;30489;48.982;8.394;2022-08-25T00:35:18;41.91;40.62;42.93;;
40465;Laerm;30489;48.982;8.394;2022-08-25T00:37:28;41.90;40.71;43.04;;
40465;Laerm;30489;48.982;8.394;2022-08-25T00:39:38;41.90;40.62;42.90;;
40465;Laerm;30489;48.982;8.394;2022-08-25T00:41:49;41.91;40.62;42.88;;
40465;Laerm;30489;48.982;8.394;2022-08-25T00:44:01;41.91;40.71;44.51;;
40465;Laerm;30489;48.982;8.394;2022-08-25T00:46:14;41.89;40.43;46.80;;
40465;Laerm;30489;48.982;8.394;2022-08-25T00:48:26;41.89;40.71;42.88;;
40465;Laerm;30489;48.982;8.394;2022-08-25T00:50:36;41.87;40.23;43.09;;
40465;Laerm;30489;48.982;8.394;2022-08-25T00:52:47;41.87;40.62;42.93;;
40465;Laerm;30489;48.982;8.394;2022-08-25T00:55:03;41.86;40.71;42.98;;
40465;Laerm;30489;48.982;8.394;2022-08-25T00:57:16;41.86;40.71;42.88;;
40465;Laerm;30489;48.982;8.394;2022-08-25T00:59:27;41.83;40.62;42.82;;
40465;Laerm;30489;48.982;8.394;2022-08-25T01:01:38;41.81;40.71;42.98;;
40465;Laerm;30489;48.982;8.394;2022-08-25T01:03:48;41.84;40.71;42.88;;
40465;Laerm;30489;48.982;8.394;2022-08-25T01:05:59;41.81;40.62;42.85;;
40465;Laerm;30489;48.982;8.394;2022-08-25T01:08:10;41.82;40.71;42.88;;
40465;Laerm;30489;48.982;8.394;2022-08-25T01:10:21;41.80;40.43;43.58;;
40465;Laerm;30489;48.982;8.394;2022-08-25T01:12:31;41.81;40.53;42.82;;
40465;Laerm;30489;48.982;8.394;2022-08-25T01:14:43;41.80;40.43;42.98;;
40465;Laerm;30489;48.982;8.394;2022-08-25T01:16:55;41.79;40.71;42.88;;
40465;Laerm;30489;48.982;8.394;2022-08-25T01:19:07;41.78;40.43;42.93;;
40465;Laerm;30489;48.982;8.394;2022-08-25T01:21:19;41.76;40.71;42.88;;
40465;Laerm;30489;48.982;8.394;2022-08-25T01:23:30;41.78;40.62;42.88;;
40465;Laerm;30489;48.982;8.394;2022-08-25T01:25:46;41.77;40.43;42.82;;
40465;Laerm;30489;48.982;8.394;2022-08-25T01:27:59;41.79;40.53;42.88;;
40465;Laerm;30489;48.982;8.394;2022-08-25T01:30:09;41.78;40.53;42.71;;
40465;Laerm;30489;48.982;8.394;2022-08-25T01:32:20;41.75;40.43;42.82;;
40465;Laerm;30489;48.982;8.394;2022-08-25T01:34:31;41.77;40.53;42.82;;
40465;Laerm;30489;48.982;8.394;2022-08-25T01:36:43;41.77;40.36;42.88;;
40465;Laerm;30489;48.982;8.394;2022-08-25T01:38:53;41.78;40.23;42.76;;
40465;Laerm;30489;48.982;8.394;2022-08-25T01:41:04;41.77;40.71;42.88;;
40465;Laerm;30489;48.982;8.394;2022-08-25T01:45:25;41.74;40.23;42.82;;
40465;Laerm;30489;48.982;8.394;2022-08-25T01:47:36;41.75;40.33;42.74;;
40465;Laerm;30489;48.982;8.394;2022-08-25T01:49:46;41.74;40.43;42.76;;
40465;Laerm;30489;48.982;8.394;2022-08-25T01:51:59;41.76;40.62;42.93;;
40465;Laerm;30489;48.982;8.394;2022-08-25T01:54:10;41.75;40.53;42.82;;
40465;Laerm;30489;48.982;8.394;2022-08-25T01:56:20;41.70;40.43;42.98;;
40465;Laerm;30489;48.982;8.394;2022-08-25T01:58:31;41.67;40.53;42.82;;
40465;Laerm;30489;48.982;8.394;2022-08-25T02:00:46;41.68;40.43;46.59;;
40465;Laerm;30489;48.982;8.394;2022-08-25T02:02:56;41.66;40.23;42.71;;
40465;Laerm;30489;48.982;8.394;2022-08-25T02:05:07;41.65;40.33;43.19;;
40465;Laerm;30489;48.982;8.394;2022-08-25T02:07:18;41.64;40.23;42.88;;
40465;Laerm;30489;48.982;8.394;2022-08-25T02:09:28;41.65;40.13;42.82;;
40465;Laerm;30489;48.982;8.394;2022-08-25T02:11:39;41.65;40.53;42.88;;
40465;Laerm;30489;48.982;8.394;2022-08-25T02:13:51;41.64;40.45;45.54;;
40465;Laerm;30489;48.982;8.394;2022-08-25T02:16:01;41.63;40.13;42.82;;
40465;Laerm;30489;48.982;8.394;2022-08-25T02:18:12;41.62;40.13;42.65;;
40465;Laerm;30489;48.982;8.394;2022-08-25T02:20:23;41.62;40.53;42.71;;
40465;Laerm;30489;48.982;8.394;2022-08-25T02:22:34;41.63;40.23;42.71;;
40465;Laerm;30489;48.982;8.394;2022-08-25T02:24:44;41.73;40.33;44.03;;
40465;Laerm;30489;48.982;8.394;2022-08-25T02:26:54;41.87;40.53;43.86;;
40465;Laerm;30489;48.982;8.394;2022-08-25T02:29:05;41.95;40.53;43.81;;
40465;Laerm;30489;48.982;8.394;2022-08-25T02:31:17;41.97;40.62;56.58;;
40465;Laerm;30489;48.982;8.394;2022-08-25T02:33:28;41.93;40.53;47.88;;
40465;Laerm;30489;48.982;8.394;2022-08-25T02:35:38;41.96;40.43;44.19;;
40465;Laerm;30489;48.982;8.394;2022-08-25T02:37:49;41.93;40.54;44.07;;
40465;Laerm;30489;48.982;8.394;2022-08-25T02:40:00;41.97;40.53;44.19;;
40465;Laerm;30489;48.982;8.394;2022-08-25T02:42:10;41.86;40.23;43.58;;
40465;Laerm;30489;48.982;8.394;2022-08-25T02:44:21;41.88;40.43;44.15;;
40465;Laerm;30489;48.982;8.394;2022-08-25T02:46:31;41.86;40.33;43.44;;
40465;Laerm;30489;48.982;8.394;2022-08-25T02:48:41;41.91;40.43;43.72;;
40465;Laerm;30489;48.982;8.394;2022-08-25T02:50:51;41.84;40.53;43.29;;
40465;Laerm;30489;48.982;8.394;2022-08-25T02:53:02;41.97;40.23;44.03;;
40465;Laerm;30489;48.982;8.394;2022-08-25T02:55:12;41.91;40.43;44.11;;
40465;Laerm;30489;48.982;8.394;2022-08-25T02:57:23;41.88;40.33;43.81;;
40465;Laerm;30489;48.982;8.394;2022-08-25T02:59:33;41.89;40.33;44.19;;
40465;Laerm;30489;48.982;8.394;2022-08-25T03:01:44;42.03;40.33;57.19;;
40465;Laerm;30489;48.982;8.394;2022-08-25T03:03:55;41.97;40.54;44.07;;
40465;Laerm;30489;48.982;8.394;2022-08-25T03:06:06;41.92;40.53;44.69;;
40465;Laerm;30489;48.982;8.394;2022-08-25T03:08:17;41.90;40.62;43.86;;
40465;Laerm;30489;48.982;8.394;2022-08-25T03:10:27;41.90;40.43;43.58;;
40465;Laerm;30489;48.982;8.394;2022-08-25T03:12:38;41.87;40.43;43.90;;
40465;Laerm;30489;48.982;8.394;2022-08-25T03:14:50;41.85;40.33;44.31;;
40465;Laerm;30489;48.982;8.394;2022-08-25T03:17:00;41.95;40.53;44.07;;
40465;Laerm;30489;48.982;8.394;2022-08-25T03:19:11;41.90;40.53;46.71;;
40465;Laerm;30489;48.982;8.394;2022-08-25T03:21:21;41.87;40.53;43.72;;
40465;Laerm;30489;48.982;8.394;2022-08-25T03:23:31;41.97;40.43;43.99;;
40465;Laerm;30489;48.982;8.394;2022-08-25T03:25:41;41.90;40.33;43.77;;
40465;Laerm;30489;48.982;8.394;2022-08-25T03:28:10;41.88;40.23;51.51;;
40465;Laerm;30489;48.982;8.394;2022-08-25T03:30:20;41.87;40.53;54.74;;
40465;Laerm;30489;48.982;8.394;2022-08-25T03:32:31;41.89;40.33;43.86;;
40465;Laerm;30489;48.982;8.394;2022-08-25T03:34:41;41.92;40.53;44.11;;
40465;Laerm;30489;48.982;8.394;2022-08-25T03:36:51;41.88;40.62;43.24;;
40465;Laerm;30489;48.982;8.394;2022-08-25T03:39:02;41.92;40.43;43.94;;
40465;Laerm;30489;48.982;8.394;2022-08-25T03:41:13;41.95;40.71;43.29;;
40465;Laerm;30489;48.982;8.394;2022-08-25T03:43:23;42.03;40.71;43.81;;
40465;Laerm;30489;48.982;8.394;2022-08-25T03:45:34;41.99;40.53;43.39;;
40465;Laerm;30489;48.982;8.394;2022-08-25T03:47:48;41.99;40.36;44.11;;
40465;Laerm;30489;48.982;8.394;2022-08-25T03:49:59;42.00;40.53;43.90;;
40465;Laerm;30489;48.982;8.394;2022-08-25T03:52:10;42.19;40.45;60.85;;
40465;Laerm;30489;48.982;8.394;2022-08-25T03:54:21;42.17;40.62;45.11;;
40465;Laerm;30489;48.982;8.394;2022-08-25T03:56:32;42.26;40.43;44.69;;
40465;Laerm;30489;48.982;8.394;2022-08-25T03:58:42;42.19;40.62;44.43;;
40465;Laerm;30489;48.982;8.394;2022-08-25T04:00:52;42.14;40.23;44.07;;
40465;Laerm;30489;48.982;8.394;2022-08-25T04:03:03;42.05;40.45;44.11;;
40465;Laerm;30489;48.982;8.394;2022-08-25T04:05:14;42.09;40.53;45.01;;
40465;Laerm;30489;48.982;8.394;2022-08-25T04:07:24;41.76;40.23;43.72;;
40465;Laerm;30489;48.982;8.394;2022-08-25T04:09:34;41.54;39.92;43.86;;
40465;Laerm;30489;48.982;8.394;2022-08-25T04:11:44;41.52;40.03;52.04;;
40465;Laerm;30489;48.982;8.394;2022-08-25T04:13:56;41.51;40.23;57.14;;
40465;Laerm;30489;48.982;8.394;2022-08-25T04:16:10;41.46;40.23;43.14;;
40465;Laerm;30489;48.982;8.394;2022-08-25T04:18:21;41.43;39.92;42.82;;
40465;Laerm;30489;48.982;8.394;2022-08-25T04:20:31;41.36;40.13;42.93;;
40465;Laerm;30489;48.982;8.394;2022-08-25T04:22:42;41.33;39.92;42.53;;
40465;Laerm;30489;48.982;8.394;2022-08-25T04:24:52;41.32;39.58;42.65;;
40465;Laerm;30489;48.982;8.394;2022-08-25T04:27:02;41.31;40.13;42.59;;
40465;Laerm;30489;48.982;8.394;2022-08-25T04:29:13;41.27;39.81;42.95;;
40465;Laerm;30489;48.982;8.394;2022-08-25T04:31:24;41.27;39.81;42.41;;
40465;Laerm;30489;48.982;8.394;2022-08-25T04:33:35;41.26;39.58;42.41;;
40465;Laerm;30489;48.982;8.394;2022-08-25T04:35:46;41.24;39.92;42.41;;
40465;Laerm;30489;48.982;8.394;2022-08-25T04:37:56;41.23;39.81;42.47;;
40465;Laerm;30489;48.982;8.394;2022-08-25T04:40:07;41.24;39.92;42.82;;
40465;Laerm;30489;48.982;8.394;2022-08-25T04:42:18;41.22;39.81;42.41;;
40465;Laerm;30489;48.982;8.394;2022-08-25T04:44:29;41.22;39.58;42.53;;
40465;Laerm;30489;48.982;8.394;2022-08-25T04:46:39;41.20;39.70;42.53;;
40465;Laerm;30489;48.982;8.394;2022-08-25T04:48:50;41.17;39.81;42.29;;
40465;Laerm;30489;48.982;8.394;2022-08-25T04:51:07;41.16;39.58;42.47;;
40465;Laerm;30489;48.982;8.394;2022-08-25T04:53:18;41.15;39.46;42.30;;
40465;Laerm;30489;48.982;8.394;2022-08-25T04:55:30;41.13;39.58;42.41;;
40465;Laerm;30489;48.982;8.394;2022-08-25T04:57:40;41.12;39.70;42.41;;
40465;Laerm;30489;48.982;8.394;2022-08-25T04:59:50;41.12;39.70;42.29;;
40465;Laerm;30489;48.982;8.394;2022-08-25T05:02:01;41.09;39.70;42.29;;
40465;Laerm;30489;48.982;8.394;2022-08-25T05:04:12;41.05;39.70;42.35;;
40465;Laerm;30489;48.982;8.394;2022-08-25T05:06:24;41.05;39.46;42.29;;
40465;Laerm;30489;48.982;8.394;2022-08-25T05:08:34;41.06;39.46;52.85;;
40465;Laerm;30489;48.982;8.394;2022-08-25T05:10:45;41.06;39.34;52.11;;
40465;Laerm;30489;48.982;8.394;2022-08-25T05:12:55;41.03;39.46;42.65;;
40465;Laerm;30489;48.982;8.394;2022-08-25T05:15:05;41.01;39.58;43.63;;
40465;Laerm;30489;48.982;8.394;2022-08-25T05:17:35;41.06;39.58;55.56;;
40465;Laerm;30489;48.982;8.394;2022-08-25T05:19:46;40.98;39.46;42.82;;
40465;Laerm;30489;48.982;8.394;2022-08-25T05:21:56;41.00;39.34;54.48;;
40465;Laerm;30489;48.982;8.394;2022-08-25T05:24:06;40.98;39.46;42.58;;
40465;Laerm;30489;48.982;8.394;2022-08-25T05:26:20;40.99;39.58;42.29;;
40465;Laerm;30489;48.982;8.394;2022-08-25T05:28:30;41.00;39.58;48.26;;
40465;Laerm;30489;48.982;8.394;2022-08-25T05:30:42;41.11;39.58;44.47;;
40465;Laerm;30489;48.982;8.394;2022-08-25T05:32:52;41.26;39.70;44.90;;
40465;Laerm;30489;48.982;8.394;2022-08-25T05:35:03;41.17;39.58;51.89;;
40465;Laerm;30489;48.982;8.394;2022-08-25T05:37:14;41.48;39.58;44.94;;
40465;Laerm;30489;48.982;8.394;2022-08-25T05:39:24;41.84;39.81;44.80;;
40465;Laerm;30489;48.982;8.394;2022-08-25T05:41:35;41.66;39.58;45.60;;
40465;Laerm;30489;48.982;8.394;2022-08-25T05:43:45;42.16;39.68;46.35;;
40465;Laerm;30489;48.982;8.394;2022-08-25T05:45:57;42.13;39.70;48.73;;
40465;Laerm;30489;48.982;8.394;2022-08-25T05:48:08;42.26;40.03;45.01;;
40465;Laerm;30489;48.982;8.394;2022-08-25T05:50:18;42.38;40.13;45.99;;
40465;Laerm;30489;48.982;8.394;2022-08-25T05:52:28;42.29;39.81;45.48;;
40465;Laerm;30489;48.982;8.394;2022-08-25T05:54:39;43.23;40.62;46.07;;
40465;Laerm;30489;48.982;8.394;2022-08-25T05:56:49;43.52;40.53;46.18;;
40465;Laerm;30489;48.982;8.394;2022-08-25T05:59:00;43.40;40.23;46.55;;
40465;Laerm;30489;48.982;8.394;2022-08-25T06:01:17;43.37;40.71;54.28;;
40465;Laerm;30489;48.982;8.394;2022-08-25T06:03:46;43.19;40.43;46.18;;
40465;Laerm;30489;48.982;8.394;2022-08-25T06:06:04;42.90;40.43;46.20;;
40465;Laerm;30489;48.982;8.394;2022-08-25T06:08:14;42.79;40.43;45.83;;
40465;Laerm;30489;48.982;8.394;2022-08-25T06:10:25;42.89;40.33;51.33;;
40465;Laerm;30489;48.982;8.394;2022-08-25T06:12:36;42.27;39.99;45.04;;
40465;Laerm;30489;48.982;8.394;2022-08-25T06:14:47;42.22;40.43;45.80;;
40465;Laerm;30489;48.982;8.394;2022-08-25T06:16:58;42.12;40.43;46.48;;
40465;Laerm;30489;48.982;8.394;2022-08-25T06:19:09;42.17;40.23;45.23;;
40465;Laerm;30489;48.982;8.394;2022-08-25T06:21:20;42.24;40.23;46.05;;
40465;Laerm;30489;48.982;8.394;2022-08-25T06:23:30;42.03;40.13;52.42;;
40465;Laerm;30489;48.982;8.394;2022-08-25T06:25:40;41.93;39.89;44.97;;
40465;Laerm;30489;48.982;8.394;2022-08-25T06:27:50;41.81;40.13;44.65;;
40465;Laerm;30489;48.982;8.394;2022-08-25T06:30:02;42.08;40.33;45.27;;
40465;Laerm;30489;48.982;8.394;2022-08-25T06:32:13;42.16;40.23;52.39;;
40465;Laerm;30489;48.982;8.394;2022-08-25T06:34:24;41.94;40.03;46.10;;
40465;Laerm;30489;48.982;8.394;2022-08-25T06:36:34;41.72;39.81;45.77;;
40465;Laerm;30489;48.982;8.394;2022-08-25T06:38:45;41.63;40.13;45.45;;
40465;Laerm;30489;48.982;8.394;2022-08-25T06:40:55;41.47;40.03;44.23;;
40465;Laerm;30489;48.982;8.394;2022-08-25T06:43:06;41.30;39.92;43.29;;
40465;Laerm;30489;48.982;8.394;2022-08-25T06:45:17;41.29;39.81;42.71;;
40465;Laerm;30489;48.982;8.394;2022-08-25T06:47:28;41.34;40.03;42.53;;
40465;Laerm;30489;48.982;8.394;2022-08-25T06:49:38;41.36;40.13;42.47;;
40465;Laerm;30489;48.982;8.394;2022-08-25T06:51:49;41.36;40.03;42.59;;
40465;Laerm;30489;48.982;8.394;2022-08-25T06:53:59;41.37;40.03;42.41;;
40465;Laerm;30489;48.982;8.394;2022-08-25T06:56:09;41.39;40.03;42.76;;
40465;Laerm;30489;48.982;8.394;2022-08-25T06:58:20;41.39;39.81;44.54;;
40465;Laerm;30489;48.982;8.394;2022-08-25T07:00:30;41.54;39.70;47.10;;
40465;Laerm;30489;48.982;8.394;2022-08-25T07:02:40;41.54;40.03;46.82;;
40465;Laerm;30489;48.982;8.394;2022-08-25T07:04:51;41.43;39.92;42.47;;
40465;Laerm;30489;48.982;8.394;2022-08-25T07:07:02;41.48;40.13;42.65;;
40465;Laerm;30489;48.982;8.394;2022-08-25T07:09:13;41.46;40.03;42.82;;
40465;Laerm;30489;48.982;8.394;2022-08-25T07:11:23;41.48;40.03;42.65;;
40465;Laerm;30489;48.982;8.394;2022-08-25T07:13:34;41.52;40.13;46.35;;
40465;Laerm;30489;48.982;8.394;2022-08-25T07:15:46;41.55;40.13;43.54;;
40465;Laerm;30489;48.982;8.394;2022-08-25T07:17:56;41.58;40.23;42.82;;
40465;Laerm;30489;48.982;8.394;2022-08-25T07:20:06;41.60;40.33;42.88;;
40465;Laerm;30489;48.982;8.394;2022-08-25T07:22:16;41.64;40.45;42.76;;
40465;Laerm;30489;48.982;8.394;2022-08-25T07:24:27;41.66;40.33;42.65;;
40465;Laerm;30489;48.982;8.394;2022-08-25T07:26:38;41.67;40.43;42.76;;
40465;Laerm;30489;48.982;8.394;2022-08-25T07:28:49;41.68;40.53;42.88;;
40465;Laerm;30489;48.982;8.394;2022-08-25T07:31:00;41.70;40.23;42.85;;
40465;Laerm;30489;48.982;8.394;2022-08-25T07:33:10;41.74;40.43;42.93;;
40465;Laerm;30489;48.982;8.394;2022-08-25T07:35:21;41.76;40.43;42.82;;
40465;Laerm;30489;48.982;8.394;2022-08-25T07:37:36;41.79;40.53;46.20;;
40465;Laerm;30489;48.982;8.394;2022-08-25T07:39:46;41.76;40.45;42.88;;
40465;Laerm;30489;48.982;8.394;2022-08-25T07:41:57;41.79;40.33;43.94;;
40465;Laerm;30489;48.982;8.394;2022-08-25T07:44:08;41.84;40.62;50.67;;
40465;Laerm;30489;48.982;8.394;2022-08-25T07:46:19;41.86;40.53;43.04;;
40465;Laerm;30489;48.982;8.394;2022-08-25T07:48:29;41.86;40.33;42.98;;
40465;Laerm;30489;48.982;8.394;2022-08-25T07:50:41;41.88;40.62;42.98;;
40465;Laerm;30489;48.982;8.394;2022-08-25T07:52:52;41.90;40.62;42.93;;
40465;Laerm;30489;48.982;8.394;2022-08-25T07:55:02;41.92;40.89;43.24;;
40465;Laerm;30489;48.982;8.394;2022-08-25T07:57:12;41.94;40.71;43.04;;
40465;Laerm;30489;48.982;8.394;2022-08-25T07:59:23;41.95;40.71;42.98;;
40465;Laerm;30489;48.982;8.394;2022-08-25T08:01:33;41.97;40.53;43.04;;
40465;Laerm;30489;48.982;8.394;2022-08-25T08:03:43;41.98;40.62;43.19;;
40465;Laerm;30489;48.982;8.394;2022-08-25T08:05:54;41.98;40.71;43.05;;
40465;Laerm;30489;48.982;8.394;2022-08-25T08:08:05;42.02;40.71;43.19;;
40465;Laerm;30489;48.982;8.394;2022-08-25T08:10:15;42.06;40.71;43.04;;
40465;Laerm;30489;48.982;8.394;2022-08-25T08:12:26;42.08;40.62;43.09;;
40465;Laerm;30489;48.982;8.394;2022-08-25T08:14:36;42.10;40.89;43.44;;
40465;Laerm;30489;48.982;8.394;2022-08-25T08:16:47;42.12;40.98;43.34;;
40465;Laerm;30489;48.982;8.394;2022-08-25T08:18:57;42.12;40.89;43.14;;
40465;Laerm;30489;48.982;8.394;2022-08-25T08:21:50;42.13;40.89;43.19;;
40465;Laerm;30489;48.982;8.394;2022-08-25T08:23:41;42.15;40.89;43.29;;
40465;Laerm;30489;48.982;8.394;2022-08-25T08:25:51;42.18;41.06;43.24;;
40465;Laerm;30489;48.982;8.394;2022-08-25T08:28:02;42.20;41.06;43.34;;
40465;Laerm;30489;48.982;8.394;2022-08-25T08:30:12;42.20;40.89;43.24;;
40465;Laerm;30489;48.982;8.394;2022-08-25T08:32:22;42.24;40.89;43.24;;
40465;Laerm;30489;48.982;8.394;2022-08-25T08:34:33;42.24;40.98;43.24;;
40465;Laerm;30489;48.982;8.394;2022-08-25T08:36:43;42.24;41.06;43.19;;
40465;Laerm;30489;48.982;8.394;2022-08-25T08:38:53;42.25;41.06;43.24;;
40465;Laerm;30489;48.982;8.394;2022-08-25T08:43:33;42.26;40.98;43.29;;
40465;Laerm;30489;48.982;8.394;2022-08-25T08:45:50;42.26;40.98;43.34;;
40465;Laerm;30489;48.982;8.394;2022-08-25T08:48:07;42.27;41.22;43.49;;
40465;Laerm;30489;48.982;8.394;2022-08-25T08:54:40;42.27;41.06;43.34;;
40465;Laerm;30489;48.982;8.394;2022-08-25T08:56:56;42.27;40.89;43.24;;
40465;Laerm;30489;48.982;8.394;2022-08-25T08:59:12;42.29;40.98;43.49;;
40465;Laerm;30489;48.982;8.394;2022-08-25T09:01:46;42.27;40.43;43.44;;
40465;Laerm;30489;48.982;8.394;2022-08-25T09:06:35;42.28;41.06;43.54;;
40465;Laerm;30489;48.982;8.394;2022-08-25T09:08:47;42.28;41.06;43.44;;
40465;Laerm;30489;48.982;8.394;2022-08-25T09:15:44;42.27;40.89;43.54;;
40465;Laerm;30489;48.982;8.394;2022-08-25T09:18:32;42.26;40.98;43.34;;
40465;Laerm;30489;48.982;8.394;2022-08-25T09:25:19;42.24;41.06;43.34;;
40465;Laerm;30489;48.982;8.394;2022-08-25T09:29:54;42.21;40.98;43.34;;
40465;Laerm;30489;48.982;8.394;2022-08-25T09:32:07;42.19;40.53;43.29;;
40465;Laerm;30489;48.982;8.394;2022-08-25T09:34:19;42.16;40.71;43.39;;
40465;Laerm;30489;48.982;8.394;2022-08-25T09:36:30;42.15;40.98;43.34;;
40465;Laerm;30489;48.982;8.394;2022-08-25T09:38:42;42.13;40.80;43.29;;
40465;Laerm;30489;48.982;8.394;2022-08-25T09:40:54;42.15;40.71;43.24;;
40465;Laerm;30489;48.982;8.394;2022-08-25T09:43:17;42.11;40.71;43.49;;
40465;Laerm;30489;48.982;8.394;2022-08-25T09:45:36;42.07;40.62;43.19;;
40465;Laerm;30489;48.982;8.394;2022-08-25T09:47:48;42.08;40.53;43.19;;
40465;Laerm;30489;48.982;8.394;2022-08-25T09:49:59;42.09;40.53;43.19;;
40465;Laerm;30489;48.982;8.394;2022-08-25T09:52:22;42.08;40.71;43.19;;
40465;Laerm;30489;48.982;8.394;2022-08-25T09:54:32;42.08;40.71;43.24;;
40465;Laerm;30489;48.982;8.394;2022-08-25T09:56:53;42.06;40.89;43.19;;
40465;Laerm;30489;48.982;8.394;2022-08-25T10:01:33;42.05;40.43;43.19;;
40465;Laerm;30489;48.982;8.394;2022-08-25T10:04:03;42.06;40.80;43.34;;
40465;Laerm;30489;48.982;8.394;2022-08-25T10:06:14;42.05;40.71;43.49;;
40465;Laerm;30489;48.982;8.394;2022-08-25T10:08:32;42.00;40.53;43.14;;
40465;Laerm;30489;48.982;8.394;2022-08-25T10:10:44;41.98;40.43;43.09;;
40465;Laerm;30489;48.982;8.394;2022-08-25T10:12:54;41.97;40.43;43.19;;
40465;Laerm;30489;48.982;8.394;2022-08-25T10:15:15;41.96;40.53;43.29;;
40465;Laerm;30489;48.982;8.394;2022-08-25T10:19:36;41.98;40.71;43.19;;
40465;Laerm;30489;48.982;8.394;2022-08-25T10:22:00;42.05;40.71;44.87;;
40465;Laerm;30489;48.982;8.394;2022-08-25T10:24:11;41.96;40.23;43.86;;
40465;Laerm;30489;48.982;8.394;2022-08-25T10:26:27;41.96;40.33;43.24;;
40465;Laerm;30489;48.982;8.394;2022-08-25T10:29:25;41.94;40.43;43.04;;
40465;Laerm;30489;48.982;8.394;2022-08-25T10:31:21;41.94;40.62;43.24;;
40465;Laerm;30489;48.982;8.394;2022-08-25T10:38:02;41.87;40.43;42.93;;
40465;Laerm;30489;48.982;8.394;2022-08-25T10:40:18;41.89;40.33;42.98;;
40465;Laerm;30489;48.982;8.394;2022-08-25T10:49:45;41.86;40.33;43.04;;
40465;Laerm;30489;48.982;8.394;2022-08-25T10:54:22;41.82;40.43;42.98;;
40465;Laerm;30489;48.982;8.394;2022-08-25T10:58:50;41.79;40.13;43.04;;
40465;Laerm;30489;48.982;8.394;2022-08-25T11:03:38;41.82;40.43;43.14;;
40465;Laerm;30489;48.982;8.394;2022-08-25T11:06:04;41.80;40.33;43.04;;
40465;Laerm;30489;48.982;8.394;2022-08-25T11:08:22;41.79;40.23;43.14;;
40465;Laerm;30489;48.982;8.394;2022-08-25T11:10:49;41.77;40.33;43.04;;
40465;Laerm;30489;48.982;8.394;2022-08-25T11:13:03;41.78;40.03;43.24;;
40465;Laerm;30489;48.982;8.394;2022-08-25T11:15:18;41.76;40.13;42.93;;
40465;Laerm;30489;48.982;8.394;2022-08-25T11:17:45;41.74;40.13;43.04;;
40465;Laerm;30489;48.982;8.394;2022-08-25T11:19:59;41.76;40.03;43.04;;
40465;Laerm;30489;48.982;8.394;2022-08-25T11:24:28;41.72;40.33;43.09;;
40465;Laerm;30489;48.982;8.394;2022-08-25T11:26:42;41.69;40.03;42.98;;
40465;Laerm;30489;48.982;8.394;2022-08-25T11:29:00;41.70;40.03;43.14;;
40465;Laerm;30489;48.982;8.394;2022-08-25T11:31:12;41.68;40.23;43.04;;
40465;Laerm;30489;48.982;8.394;2022-08-25T11:33:23;41.66;40.03;43.24;;
40465;Laerm;30489;48.982;8.394;2022-08-25T11:40:13;41.68;40.13;42.98;;
40465;Laerm;30489;48.982;8.394;2022-08-25T11:47:29;41.68;40.23;43.19;;
40465;Laerm;30489;48.982;8.394;2022-08-25T11:49:47;41.65;39.92;42.88;;
40465;Laerm;30489;48.982;8.394;2022-08-25T11:51:59;41.63;39.92;42.98;;
40465;Laerm;30489;48.982;8.394;2022-08-25T11:54:14;41.64;39.58;43.04;;
40465;Laerm;30489;48.982;8.394;2022-08-25T11:56:33;41.60;39.92;42.88;;
40465;Laerm;30489;48.982;8.394;2022-08-25T11:58:50;41.60;40.13;42.82;;
40465;Laerm;30489;48.982;8.394;2022-08-25T12:01:01;41.61;39.92;42.82;;
40465;Laerm;30489;48.982;8.394;2022-08-25T12:10:22;41.57;39.92;42.93;;
40465;Laerm;30489;48.982;8.394;2022-08-25T12:12:38;41.53;39.92;42.76;;
40465;Laerm;30489;48.982;8.394;2022-08-25T12:15:20;41.50;39.34;42.82;;
40465;Laerm;30489;48.982;8.394;2022-08-25T12:17:37;41.44;39.81;42.76;;
40465;Laerm;30489;48.982;8.394;2022-08-25T12:19:51;41.44;39.70;42.88;;
40465;Laerm;30489;48.982;8.394;2022-08-25T12:24:12;41.42;39.58;42.65;;
40465;Laerm;30489;48.982;8.394;2022-08-25T12:28:50;41.41;39.21;43.14;;
40465;Laerm;30489;48.982;8.394;2022-08-25T12:31:08;41.44;39.81;42.88;;
40465;Laerm;30489;48.982;8.394;2022-08-25T12:33:31;41.43;39.81;43.39;;
40465;Laerm;30489;48.982;8.394;2022-08-25T12:35:55;41.44;39.78;42.82;;
40465;Laerm;30489;48.982;8.394;2022-08-25T12:38:07;41.39;39.70;42.88;;
40465;Laerm;30489;48.982;8.394;2022-08-25T12:40:26;41.40;39.70;42.71;;
40465;Laerm;30489;48.982;8.394;2022-08-25T12:42:39;41.83;39.70;54.51;;
40465;Laerm;30489;48.982;8.394;2022-08-25T12:47:25;41.34;39.34;42.59;;
40465;Laerm;30489;48.982;8.394;2022-08-25T12:49:36;41.30;39.58;42.71;;
40465;Laerm;30489;48.982;8.394;2022-08-25T12:51:51;41.34;39.46;43.44;;
40465;Laerm;30489;48.982;8.394;2022-08-25T12:54:16;41.26;39.46;42.65;;
40465;Laerm;30489;48.982;8.394;2022-08-25T13:03:51;41.25;39.21;42.76;;
40465;Laerm;30489;48.982;8.394;2022-08-25T13:12:57;41.30;39.58;42.76;;
40465;Laerm;30489;48.982;8.394;2022-08-25T13:15:13;41.26;39.21;42.71;;
40465;Laerm;30489;48.982;8.394;2022-08-25T13:17:24;41.26;39.34;42.65;;
40465;Laerm;30489;48.982;8.394;2022-08-25T13:19:34;41.25;39.46;42.93;;
40465;Laerm;30489;48.982;8.394;2022-08-25T13:21:45;41.19;39.21;42.65;;
40465;Laerm;30489;48.982;8.394;2022-08-25T13:23:57;41.20;39.70;42.59;;
40465;Laerm;30489;48.982;8.394;2022-08-25T13:26:11;41.17;39.23;42.59;;
40465;Laerm;30489;48.982;8.394;2022-08-25T13:28:25;41.20;39.46;42.53;;
40465;Laerm;30489;48.982;8.394;2022-08-25T13:30:35;41.17;38.95;42.65;;
40465;Laerm;30489;48.982;8.394;2022-08-25T13:32:46;41.16;39.34;42.71;;
40465;Laerm;30489;48.982;8.394;2022-08-25T13:35:06;41.16;39.34;42.65;;
40465;Laerm;30489;48.982;8.394;2022-08-25T13:37:22;41.23;39.21;42.71;;
40465;Laerm;30489;48.982;8.394;2022-08-25T13:39:38;41.19;39.34;42.65;;
40465;Laerm;30489;48.982;8.394;2022-08-25T13:41:51;41.19;39.08;43.04;;
40465;Laerm;30489;48.982;8.394;2022-08-25T13:44:02;41.19;39.58;42.76;;
40465;Laerm;30489;48.982;8.394;2022-08-25T13:46:16;41.17;39.21;42.93;;
40465;Laerm;30489;48.982;8.394;2022-08-25T13:50:43;41.18;39.34;42.65;;